Time;durP1;ratioP1;P1;durP2;ratioP2;P2;SDS_P1;SDS_P2;PMS_P1;PMS_P2;Temp;Humidity;BMP_temperature;BMP_pressure;BME280_temperature;BME280_humidity;BME280_pressure;Samples;Min_cycle;Max_cycle;Signal;HPM_P1;HPM_P2
2022/08/18 00:00:30;;;;;;;9.43;2.88;;;15.00;99.90;;;;;;4941167;29;20023;-89
2022/08/18 00:03:04;;;;;;;11.32;3.10;;;15.00;99.90;;;;;;4940836;29;20445;-89
2022/08/18 00:05:30;;;;;;;9.60;3.88;;;15.00;99.90;;;;;;4940888;29;20519;-90
2022/08/18 00:07:57;;;;;;;10.68;3.60;;;15.00;99.90;;;;;;4941129;29;20051;-92
2022/08/18 00:10:26;;;;;;;11.68;3.05;;;15.00;99.90;;;;;;4941318;29;20481;-90
2022/08/18 00:12:58;;;;;;;13.30;3.63;;;15.00;99.90;;;;;;4943756;29;20114;-90
2022/08/18 00:15:25;;;;;;;11.60;3.55;;;15.00;99.90;;;;;;4941263;29;20027;-90
2022/08/18 00:17:52;;;;;;;16.77;3.60;;;15.00;99.90;;;;;;4958085;28;20059;-90
2022/08/18 00:20:21;;;;;;;8.88;3.65;;;15.00;99.90;;;;;;4940040;29;20128;-90
2022/08/18 00:22:48;;;;;;;7.75;2.90;;;15.00;99.90;;;;;;4939623;29;20047;-89
2022/08/18 00:25:16;;;;;;;11.45;3.58;;;15.00;99.90;;;;;;4940513;29;20520;-90
2022/08/18 00:27:42;;;;;;;14.05;3.08;;;15.00;99.90;;;;;;4940094;29;20122;-90
2022/08/18 00:30:14;;;;;;;9.02;3.10;;;15.00;99.90;;;;;;4957283;29;20118;-90
2022/08/18 00:32:49;;;;;;;8.60;2.70;;;15.00;99.90;;;;;;4940669;29;20027;-90
2022/08/18 00:35:27;;;;;;;9.40;2.50;;;15.00;99.90;;;;;;4939741;29;20047;-90
2022/08/18 00:37:56;;;;;;;8.90;2.63;;;15.00;99.90;;;;;;4958487;29;20035;-90
2022/08/18 00:40:28;;;;;;;11.60;2.72;;;15.00;99.90;;;;;;4941541;29;20024;-89
2022/08/18 00:42:58;;;;;;;9.43;2.70;;;14.90;99.90;;;;;;4940253;29;20110;-90
2022/08/18 00:45:31;;;;;;;6.85;2.85;;;14.90;99.90;;;;;;4939556;29;20066;-90
2022/08/18 00:47:59;;;;;;;7.72;2.63;;;14.90;99.90;;;;;;4939831;28;20031;-90
2022/08/18 00:50:39;;;;;;;12.93;2.88;;;14.90;99.90;;;;;;4940212;29;20066;-90
2022/08/18 00:53:26;;;;;;;7.55;2.15;;;14.90;99.90;;;;;;4939793;29;20035;-91
2022/08/18 00:55:54;;;;;;;8.57;2.42;;;15.00;99.90;;;;;;4939758;29;20126;-89
2022/08/18 00:58:28;;;;;;;7.30;2.50;;;14.90;99.90;;;;;;4939636;28;20024;-90
2022/08/18 01:00:53;;;;;;;12.75;2.05;;;14.90;99.90;;;;;;4939863;29;20031;-91
2022/08/18 01:03:22;;;;;;;9.27;2.15;;;14.90;99.90;;;;;;4939820;29;20034;-90
2022/08/18 01:06:04;;;;;;;11.13;3.00;;;14.90;99.90;;;;;;4939929;29;20031;-90
2022/08/18 01:08:30;;;;;;;10.45;2.63;;;14.90;99.90;;;;;;4939628;29;20528;-90
2022/08/18 01:11:00;;;;;;;15.02;2.88;;;14.90;99.90;;;;;;4939590;29;20030;-87
2022/08/18 01:13:31;;;;;;;7.18;2.50;;;14.90;99.90;;;;;;4939602;29;20114;-90
2022/08/18 01:15:57;;;;;;;9.85;2.88;;;14.90;99.90;;;;;;4939713;29;20125;-89
2022/08/18 01:24:12;;;;;;;13.20;2.60;;;14.90;99.90;;;;;;4956585;29;20043;-90
2022/08/18 01:26:48;;;;;;;10.38;2.90;;;14.90;99.90;;;;;;4939500;29;20038;-91
2022/08/18 01:29:15;;;;;;;11.10;2.33;;;14.90;99.90;;;;;;4940034;29;20473;-90
2022/08/18 01:31:48;;;;;;;11.32;2.58;;;14.90;99.90;;;;;;4946591;29;20054;-91
2022/08/18 01:34:15;;;;;;;7.88;2.28;;;14.80;99.90;;;;;;4946670;29;20042;-90
2022/08/18 01:36:42;;;;;;;9.38;2.60;;;14.80;99.90;;;;;;4944721;29;20054;-90
2022/08/18 01:39:13;;;;;;;8.73;3.03;;;14.80;99.90;;;;;;4928382;29;20043;-90
2022/08/18 01:41:40;;;;;;;6.35;2.38;;;14.80;99.90;;;;;;4941673;29;20042;-90
2022/08/18 01:44:10;;;;;;;9.98;2.45;;;14.80;99.90;;;;;;4941013;29;20050;-90
2022/08/18 01:46:38;;;;;;;8.20;2.83;;;14.80;99.90;;;;;;4941267;29;20031;-90
2022/08/18 01:49:07;;;;;;;10.65;2.45;;;14.80;99.90;;;;;;4940333;29;20497;-90
2022/08/18 01:51:36;;;;;;;9.77;2.03;;;14.80;99.90;;;;;;4924535;29;20032;-90
2022/08/18 01:54:04;;;;;;;10.38;2.15;;;14.80;99.90;;;;;;4939473;29;20043;-90
2022/08/18 01:56:33;;;;;;;3.80;1.70;;;14.90;99.90;;;;;;4939810;29;20035;-90
2022/08/18 01:58:59;;;;;;;9.68;2.30;;;14.90;99.90;;;;;;4923957;29;20190;-90
2022/08/18 02:01:28;;;;;;;10.18;2.25;;;14.90;99.90;;;;;;4907849;29;20078;-90
2022/08/18 02:03:59;;;;;;;9.30;2.63;;;14.90;99.90;;;;;;4940005;29;20118;-91
2022/08/18 02:06:29;;;;;;;7.78;2.72;;;14.90;99.90;;;;;;4939747;29;20035;-90
2022/08/18 02:08:58;;;;;;;7.93;2.40;;;14.90;99.90;;;;;;4939570;29;20035;-90
2022/08/18 02:11:26;;;;;;;6.47;2.28;;;14.90;99.90;;;;;;4938780;29;20485;-91
2022/08/18 02:13:52;;;;;;;9.57;3.63;;;14.90;99.90;;;;;;4939509;29;20023;-90
2022/08/18 02:16:22;;;;;;;12.55;2.75;;;14.90;99.90;;;;;;4928079;29;20118;-90
2022/08/18 02:18:48;;;;;;;6.93;2.97;;;14.90;99.90;;;;;;4938767;29;20027;-90
2022/08/18 02:21:20;;;;;;;9.95;2.47;;;14.90;99.90;;;;;;4955729;28;20279;-89
2022/08/18 02:23:47;;;;;;;11.15;2.40;;;14.90;99.90;;;;;;4938863;29;20023;-90
2022/08/18 02:26:16;;;;;;;10.23;2.50;;;14.90;99.90;;;;;;4938083;29;20023;-90
2022/08/18 02:28:43;;;;;;;10.52;3.25;;;14.80;99.90;;;;;;4938645;29;20027;-90
2022/08/18 02:31:18;;;;;;;10.30;2.72;;;14.90;99.90;;;;;;4940427;29;20027;-90
2022/08/18 02:33:44;;;;;;;9.88;2.10;;;14.80;99.90;;;;;;4940689;29;20038;-90
2022/08/18 02:36:11;;;;;;;9.15;2.47;;;14.80;99.90;;;;;;4923445;29;20729;-90
2022/08/18 02:38:39;;;;;;;7.75;2.92;;;14.80;99.90;;;;;;4939666;29;20023;-90
2022/08/18 02:41:06;;;;;;;11.38;2.72;;;14.80;99.90;;;;;;4938529;29;20036;-90
2022/08/18 02:43:35;;;;;;;11.23;2.63;;;14.90;99.90;;;;;;4938419;29;20019;-90
2022/08/18 02:46:00;;;;;;;16.33;2.70;;;14.90;99.90;;;;;;4939015;29;20147;-88
2022/08/18 02:48:35;;;;;;;11.02;2.78;;;14.90;99.90;;;;;;4938352;29;20074;-90
2022/08/18 02:51:11;;;;;;;8.77;3.70;;;14.90;99.90;;;;;;4938625;29;20640;-90
2022/08/18 02:53:41;;;;;;;4.00;2.15;;;15.00;99.90;;;;;;4938895;29;20028;-90
2022/08/18 02:56:26;;;;;;;;;;;15.00;99.90;;;;;;4939305;29;20046;-91
2022/08/18 02:59:06;;;;;;;7.28;2.03;;;15.00;99.90;;;;;;4939829;29;19910;-90
2022/08/18 03:01:39;;;;;;;13.43;2.92;;;15.00;99.90;;;;;;4938943;29;20027;-91
2022/08/18 03:04:07;;;;;;;9.35;2.00;;;15.00;99.90;;;;;;4937786;29;20228;-90
2022/08/18 03:06:35;;;;;;;11.18;3.08;;;15.00;99.90;;;;;;4939305;29;20027;-90
2022/08/18 03:09:02;;;;;;;11.43;2.60;;;15.00;99.90;;;;;;4938828;29;20032;-90
2022/08/18 03:11:29;;;;;;;7.85;2.35;;;15.00;99.90;;;;;;4939600;29;20108;-90
2022/08/18 03:13:57;;;;;;;8.50;2.50;;;15.00;99.90;;;;;;4940545;29;20031;-90
2022/08/18 03:16:23;;;;;;;7.40;2.08;;;15.00;99.90;;;;;;4940725;29;20105;-90
2022/08/18 03:18:51;;;;;;;9.40;2.25;;;15.00;99.90;;;;;;4933905;29;20097;-91
2022/08/18 03:21:23;;;;;;;7.15;2.47;;;15.00;99.90;;;;;;4951004;28;20030;-90
2022/08/18 03:23:51;;;;;;;7.40;1.90;;;15.00;99.90;;;;;;4952682;29;20115;-90
2022/08/18 03:26:18;;;;;;;10.25;2.75;;;15.00;99.90;;;;;;4950505;29;20029;-90
2022/08/18 03:28:46;;;;;;;6.95;2.00;;;14.90;99.90;;;;;;4949544;29;20027;-91
2022/08/18 03:31:14;;;;;;;8.15;2.47;;;14.90;99.90;;;;;;4942253;29;20031;-90
2022/08/18 03:33:44;;;;;;;8.60;2.28;;;14.90;99.90;;;;;;4941931;29;20027;-90
2022/08/18 03:36:16;;;;;;;6.78;2.40;;;14.90;99.90;;;;;;4941202;29;20046;-90
2022/08/18 03:38:44;;;;;;;11.63;3.00;;;14.80;99.90;;;;;;4941879;29;20142;-90
2022/08/18 03:41:12;;;;;;;12.45;2.33;;;14.80;99.90;;;;;;4941044;29;20038;-91
2022/08/18 03:43:38;;;;;;;9.43;2.45;;;14.80;99.90;;;;;;4942259;29;20094;-91
2022/08/18 03:46:08;;;;;;;7.65;2.25;;;14.90;99.90;;;;;;4958949;28;20043;-91
2022/08/18 03:48:36;;;;;;;7.50;2.47;;;14.90;99.90;;;;;;4941539;29;20051;-90
2022/08/18 03:51:24;;;;;;;7.90;2.92;;;14.90;99.90;;;;;;4940982;29;20028;-90
2022/08/18 03:53:52;;;;;;;8.25;2.22;;;14.80;99.90;;;;;;4941287;29;20047;-90
2022/08/18 03:56:24;;;;;;;5.13;2.35;;;14.80;99.90;;;;;;4941206;29;20130;-90
2022/08/18 03:58:55;;;;;;;11.88;2.60;;;14.80;99.90;;;;;;4941816;29;20027;-91
2022/08/18 04:01:24;;;;;;;4.40;2.20;;;14.80;99.90;;;;;;4941818;29;20027;-90
2022/08/18 04:03:56;;;;;;;5.45;2.30;;;14.80;99.90;;;;;;4941841;29;20030;-90
2022/08/18 04:06:25;;;;;;;9.00;2.70;;;14.80;99.90;;;;;;4942043;29;20055;-90
2022/08/18 04:08:56;;;;;;;7.90;2.70;;;14.80;99.90;;;;;;4941677;29;20027;-91
2022/08/18 04:11:22;;;;;;;;;;;14.80;99.90;;;;;;4927193;29;20031;-90
2022/08/18 04:13:48;;;;;;;8.10;2.85;;;14.70;99.90;;;;;;4941390;29;20005;-90
2022/08/18 04:16:14;;;;;;;15.63;3.45;;;14.70;99.90;;;;;;4940702;29;20031;-91
2022/08/18 04:18:42;;;;;;;7.18;2.47;;;14.70;99.90;;;;;;4941560;29;20061;-90
2022/08/18 04:21:12;;;;;;;11.43;3.03;;;14.70;99.90;;;;;;4941770;29;20108;-91
2022/08/18 04:23:39;;;;;;;13.63;3.15;;;14.70;99.90;;;;;;4947451;29;20035;-91
2022/08/18 04:26:06;;;;;;;6.85;2.92;;;14.60;99.90;;;;;;4947104;29;20039;-90
2022/08/18 04:28:33;;;;;;;7.22;3.47;;;14.60;99.90;;;;;;4944859;29;20039;-89
2022/08/18 04:31:04;;;;;;;7.15;2.50;;;14.60;99.90;;;;;;4943557;29;20038;-90
2022/08/18 04:33:30;;;;;;;8.95;2.63;;;14.60;99.90;;;;;;4959167;28;20023;-90
2022/08/18 04:35:56;;;;;;;6.65;2.60;;;14.60;99.90;;;;;;4941923;29;20499;-91
2022/08/18 04:48:36;;;;;;;7.95;3.15;;;14.60;99.90;;;;;;4918392;29;20066;-90
2022/08/18 04:51:08;;;;;;;8.70;3.60;;;14.60;99.90;;;;;;4918591;29;20028;-90
2022/08/18 04:53:44;;;;;;;14.60;4.32;;;14.60;99.90;;;;;;4902363;29;20485;-90
2022/08/18 04:56:26;;;;;;;13.73;3.80;;;14.60;99.90;;;;;;4902007;29;20052;-90
2022/08/18 04:58:57;;;;;;;12.25;3.47;;;14.60;99.90;;;;;;4902405;29;20030;-90
2022/08/18 05:01:29;;;;;;;11.85;3.53;;;14.60;99.90;;;;;;4902311;29;20439;-90
2022/08/18 05:03:56;;;;;;;5.82;3.67;;;14.60;99.90;;;;;;4902526;29;20036;-90
2022/08/18 05:06:25;;;;;;;8.95;2.95;;;14.60;99.90;;;;;;4901919;29;20039;-90
2022/08/18 05:08:58;;;;;;;6.07;2.95;;;14.60;99.90;;;;;;4902051;29;20028;-90
2022/08/18 05:11:27;;;;;;;11.73;3.13;;;14.60;99.90;;;;;;4902418;29;20024;-90
2022/08/18 05:13:56;;;;;;;10.82;3.67;;;14.60;99.90;;;;;;4902065;29;20445;-89
2022/08/18 05:16:25;;;;;;;18.00;3.92;;;14.70;99.90;;;;;;4886477;29;20036;-90
2022/08/18 05:18:52;;;;;;;10.13;3.42;;;14.70;99.90;;;;;;4901756;29;20032;-90
2022/08/18 05:21:20;;;;;;;12.40;3.88;;;14.70;99.90;;;;;;4919040;29;20044;-91
2022/08/18 05:23:49;;;;;;;11.93;3.60;;;14.70;99.90;;;;;;4902508;29;20024;-90
2022/08/18 05:26:17;;;;;;;12.18;3.60;;;14.70;99.90;;;;;;4902755;29;20032;-90
2022/08/18 05:28:44;;;;;;;13.10;3.38;;;14.70;99.90;;;;;;4903044;29;20058;-90
2022/08/18 05:31:24;;;;;;;7.30;2.83;;;14.70;99.90;;;;;;4905512;29;20051;-91
2022/08/18 05:33:51;;;;;;;12.30;3.45;;;14.60;99.90;;;;;;4906426;29;20027;-90
2022/08/18 05:36:51;;;;;;;9.13;3.05;;;14.60;99.90;;;;;;4901955;29;20042;-90
2022/08/18 05:39:24;;;;;;;10.95;3.35;;;14.60;99.90;;;;;;4901650;29;20085;-90
2022/08/18 05:42:05;;;;;;;12.15;3.15;;;14.70;99.90;;;;;;4901443;29;20039;-90
2022/08/18 05:44:41;;;;;;;12.70;3.25;;;14.60;99.90;;;;;;4901471;29;20032;-90
2022/08/18 05:47:27;;;;;;;11.05;3.15;;;14.60;99.90;;;;;;4901358;29;20150;-90
2022/08/18 05:49:56;;;;;;;13.10;3.13;;;14.60;99.90;;;;;;4901538;29;20020;-91
2022/08/18 05:52:42;;;;;;;10.82;3.20;;;14.60;99.90;;;;;;4900809;29;20549;-91
2022/08/18 05:58:07;;;;;;;14.85;3.47;;;14.60;99.90;;;;;;4916136;29;20035;-90
2022/08/18 06:00:37;;;;;;;6.88;3.35;;;14.60;99.90;;;;;;4899622;29;20115;-90
2022/08/18 06:03:28;;;;;;;9.27;3.38;;;14.60;99.90;;;;;;4885285;29;20040;-90
2022/08/18 06:06:19;;;;;;;10.85;3.80;;;14.50;99.90;;;;;;4917470;29;20036;-90
2022/08/18 06:09:37;;;;;;;8.38;3.10;;;14.60;99.90;;;;;;4903771;29;20023;-89
2022/08/18 06:12:23;;;;;;;7.55;2.83;;;14.60;99.90;;;;;;4905715;29;20525;-89
2022/08/18 06:15:01;;;;;;;7.10;3.22;;;14.60;99.90;;;;;;4901678;29;20036;-89
2022/08/18 06:17:47;;;;;;;9.57;2.97;;;14.60;99.90;;;;;;4912461;29;20277;-90
2022/08/18 06:21:02;;;;;;;7.32;3.10;;;14.60;99.90;;;;;;4913291;29;20071;-89
2022/08/18 06:23:47;;;;;;;14.50;2.95;;;14.60;99.90;;;;;;4859803;29;20129;-89
2022/08/18 06:26:36;;;;;;;8.63;3.42;;;14.60;99.90;;;;;;4853625;29;20033;-90
2022/08/18 06:29:25;;;;;;;9.25;3.50;;;14.60;99.90;;;;;;4873807;29;20021;-91
2022/08/18 06:32:10;;;;;;;15.63;3.92;;;14.60;99.90;;;;;;4862779;29;20040;-91
2022/08/18 06:35:07;;;;;;;11.68;3.53;;;14.60;99.90;;;;;;4878289;29;20046;-91
2022/08/18 06:41:14;;;;;;;8.70;3.83;;;14.60;99.90;;;;;;4825661;29;20060;-92
2022/08/18 06:43:57;;;;;;;10.27;3.38;;;14.60;99.90;;;;;;4828739;29;20034;-93
2022/08/18 06:46:35;;;;;;;6.70;3.10;;;14.70;99.90;;;;;;4824194;29;20042;-92
2022/08/18 06:49:13;;;;;;;11.40;3.45;;;14.60;99.90;;;;;;4811451;29;20234;-92
2022/08/18 06:51:39;;;;;;;8.85;3.35;;;14.70;99.90;;;;;;4804705;29;20497;-91
2022/08/18 06:54:26;;;;;;;11.95;3.30;;;14.70;99.90;;;;;;4822695;29;20036;-91
2022/08/18 06:56:54;;;;;;;11.00;4.03;;;14.70;99.90;;;;;;4823335;29;20125;-91
2022/08/18 06:59:35;;;;;;;11.13;3.90;;;14.80;99.90;;;;;;4834107;29;20487;-92
2022/08/18 07:02:29;;;;;;;;;;;14.80;99.90;;;;;;4859963;29;20141;-92
2022/08/18 07:05:00;;;;;;;9.77;3.47;;;14.80;99.90;;;;;;4879377;29;19943;-91
2022/08/18 07:07:40;;;;;;;8.38;4.65;;;14.80;99.90;;;;;;4865103;29;20022;-91
2022/08/18 07:10:35;;;;;;;16.77;4.15;;;14.80;99.90;;;;;;4871739;29;20018;-92
2022/08/18 07:13:19;;;;;;;17.90;3.97;;;14.80;99.90;;;;;;4865445;29;20037;-93
2022/08/18 07:15:47;;;;;;;17.85;4.45;;;14.90;99.90;;;;;;4871980;29;20057;-92
2022/08/18 07:18:16;;;;;;;14.25;4.45;;;14.90;99.90;;;;;;4905370;29;20036;-93
2022/08/18 07:20:46;;;;;;;10.13;4.18;;;14.90;99.90;;;;;;4916447;29;20096;-92
2022/08/18 07:23:39;;;;;;;10.45;4.28;;;15.00;99.90;;;;;;4931943;29;20024;-93
2022/08/18 07:26:19;;;;;;;10.20;4.30;;;15.00;99.90;;;;;;4916646;29;20064;-93
2022/08/18 07:29:16;;;;;;;16.48;3.85;;;15.00;99.90;;;;;;4916469;29;20121;-93
2022/08/18 07:32:13;;;;;;;12.73;4.07;;;15.00;99.90;;;;;;4910564;29;20041;-93
2022/08/18 07:35:03;;;;;;;12.77;5.30;;;15.00;99.90;;;;;;4915363;29;20107;-92
2022/08/18 07:37:54;;;;;;;21.48;5.78;;;15.10;99.90;;;;;;4907229;29;20040;-92
2022/08/18 07:40:53;;;;;;;21.40;6.47;;;15.10;99.90;;;;;;4926082;29;20060;-93
2022/08/18 07:43:50;;;;;;;20.60;5.55;;;15.20;99.90;;;;;;4921176;29;20024;-92
2022/08/18 07:46:28;;;;;;;25.83;6.57;;;15.20;99.90;;;;;;4905974;29;20059;-92
2022/08/18 07:48:57;;;;;;;20.45;7.13;;;15.30;99.90;;;;;;4915449;29;20047;-92
2022/08/18 07:51:26;;;;;;;19.70;5.82;;;15.30;99.90;;;;;;4920694;29;20467;-92
2022/08/18 07:54:00;;;;;;;17.52;6.07;;;15.30;99.90;;;;;;4918633;29;20100;-93
2022/08/18 07:56:53;;;;;;;25.55;6.47;;;15.30;99.90;;;;;;4904606;29;20036;-92
2022/08/18 07:59:43;;;;;;;24.67;7.53;;;15.40;99.90;;;;;;4904821;29;20020;-91
2022/08/18 08:02:33;;;;;;;23.95;6.97;;;15.40;99.90;;;;;;4896145;29;20036;-91
2022/08/18 08:05:41;;;;;;;19.10;7.05;;;15.40;99.90;;;;;;4904533;29;20146;-92
2022/08/18 08:08:23;;;;;;;22.33;7.35;;;15.40;99.90;;;;;;4880499;29;20033;-92
2022/08/18 08:11:11;;;;;;;21.40;6.80;;;15.40;99.90;;;;;;4881560;29;20130;-91
2022/08/18 08:14:27;;;;;;;22.38;6.97;;;15.50;99.90;;;;;;4881448;29;20036;-92
2022/08/18 08:17:16;;;;;;;27.33;7.13;;;15.50;99.90;;;;;;4860719;29;20056;-91
2022/08/18 08:20:03;;;;;;;14.65;7.03;;;15.60;99.90;;;;;;4868821;29;20104;-91
2022/08/18 08:23:04;;;;;;;15.70;6.72;;;15.60;99.90;;;;;;4866180;29;20434;-90
2022/08/18 08:25:45;;;;;;;18.63;7.32;;;15.70;99.90;;;;;;4881376;29;20056;-90
2022/08/18 08:28:22;;;;;;;;;;;15.80;99.90;;;;;;4865981;29;20043;-90
2022/08/18 08:31:14;;;;;;;17.45;7.60;;;15.80;99.90;;;;;;4882508;29;19912;-91
2022/08/18 08:33:56;;;;;;;18.67;6.45;;;15.80;99.90;;;;;;4881709;29;20550;-92
2022/08/18 08:36:30;;;;;;;14.57;6.72;;;15.90;99.90;;;;;;4865309;29;20064;-91
2022/08/18 08:39:04;;;;;;;14.80;6.68;;;15.90;99.90;;;;;;4881190;29;20041;-91
2022/08/18 08:41:42;;;;;;;12.10;6.50;;;15.90;99.90;;;;;;4865630;29;20025;-92
2022/08/18 08:44:21;;;;;;;15.27;7.47;;;16.00;99.90;;;;;;4893747;29;20105;-90
2022/08/18 08:47:14;;;;;;;13.43;6.60;;;16.10;99.90;;;;;;4904504;29;20064;-91
2022/08/18 08:49:51;;;;;;;13.65;6.55;;;16.20;99.90;;;;;;4884660;29;20029;-90
2022/08/18 08:52:49;;;;;;;12.15;6.28;;;16.30;99.90;;;;;;4884418;29;20391;-88
2022/08/18 08:55:24;;;;;;;11.85;6.07;;;16.50;99.90;;;;;;4884000;29;20033;-91
2022/08/18 08:58:10;;;;;;;11.52;6.18;;;16.70;99.90;;;;;;4882942;29;20032;-91
2022/08/18 09:00:39;;;;;;;15.55;7.03;;;17.00;99.90;;;;;;4888881;29;20056;-91
2022/08/18 09:03:19;;;;;;;12.25;6.55;;;17.20;99.90;;;;;;4900077;29;20028;-91
2022/08/18 09:05:52;;;;;;;11.17;5.93;;;17.40;99.90;;;;;;4902166;29;20024;-90
2022/08/18 09:08:27;;;;;;;10.10;6.53;;;17.50;99.90;;;;;;4901996;29;20276;-91
2022/08/18 09:11:12;;;;;;;11.10;6.40;;;17.80;99.90;;;;;;4902027;29;20394;-91
2022/08/18 09:14:07;;;;;;;12.40;6.75;;;17.90;99.90;;;;;;4902852;29;20427;-91
2022/08/18 09:17:17;;;;;;;10.80;5.82;;;18.00;99.90;;;;;;4902376;29;20135;-90
2022/08/18 09:20:11;;;;;;;10.40;5.60;;;18.10;99.90;;;;;;4901221;29;20044;-90
2022/08/18 09:22:53;;;;;;;11.32;5.80;;;18.20;99.90;;;;;;4918777;29;20084;-90
2022/08/18 09:25:40;;;;;;;;;;;18.30;99.90;;;;;;4902516;29;20028;-91
2022/08/18 09:28:24;;;;;;;12.60;6.65;;;18.40;99.90;;;;;;4901565;29;19962;-91
2022/08/18 09:31:04;;;;;;;11.43;6.43;;;18.50;99.90;;;;;;4901764;29;20442;-90
2022/08/18 09:33:39;;;;;;;9.45;5.68;;;18.80;99.90;;;;;;4918967;29;20040;-91
2022/08/18 09:36:18;;;;;;;9.02;5.72;;;18.80;99.90;;;;;;4918914;29;20486;-92
2022/08/18 09:42:32;;;;;;;10.88;6.22;;;19.00;99.90;;;;;;4918635;29;20128;-88
2022/08/18 09:45:06;;;;;;;12.77;7.03;;;19.10;99.90;;;;;;4901966;29;20030;-91
2022/08/18 09:47:32;;;;;;;11.18;6.25;;;19.10;99.90;;;;;;4886015;29;20139;-92
2022/08/18 09:50:04;;;;;;;12.35;7.50;;;19.20;99.90;;;;;;4901362;29;20032;-90
2022/08/18 09:52:36;;;;;;;12.05;6.25;;;19.30;99.90;;;;;;4917510;29;20060;-90
2022/08/18 09:55:16;;;;;;;12.50;6.97;;;19.40;99.90;;;;;;4919010;29;20383;-90
2022/08/18 09:57:46;;;;;;;11.65;6.05;;;19.40;99.90;;;;;;4901564;29;20498;-90
2022/08/18 10:00:18;;;;;;;12.52;6.38;;;19.50;99.90;;;;;;4901850;29;20029;-90
2022/08/18 10:02:50;;;;;;;9.68;6.15;;;19.70;99.90;;;;;;4901645;29;20032;-90
2022/08/18 10:05:15;;;;;;;11.00;6.70;;;19.80;99.90;;;;;;4902049;29;20028;-90
2022/08/18 10:07:54;;;;;;;11.82;6.57;;;19.90;99.90;;;;;;4905557;29;20173;-90
2022/08/18 10:10:43;;;;;;;9.63;5.70;;;19.90;99.90;;;;;;4910317;29;20032;-91
2022/08/18 10:13:35;;;;;;;12.05;6.53;;;20.00;99.90;;;;;;4928752;29;20080;-90
2022/08/18 10:16:24;;;;;;;12.65;6.55;;;19.90;99.90;;;;;;4908270;29;20103;-90
2022/08/18 10:19:07;;;;;;;11.10;6.45;;;19.90;99.90;;;;;;4906239;29;20051;-90
2022/08/18 10:21:57;;;;;;;10.57;5.85;;;20.00;99.90;;;;;;4904067;29;20028;-90
2022/08/18 10:24:32;;;;;;;12.75;6.03;;;20.10;99.90;;;;;;4904106;29;20036;-90
2022/08/18 10:27:04;;;;;;;12.80;6.78;;;20.20;99.90;;;;;;4902271;29;20047;-90
2022/08/18 10:29:49;;;;;;;10.50;6.40;;;20.20;99.90;;;;;;4902088;29;20032;-89
2022/08/18 10:32:17;;;;;;;11.50;6.78;;;20.20;99.90;;;;;;4902866;29;20024;-90
2022/08/18 10:34:57;;;;;;;17.08;8.07;;;20.20;99.90;;;;;;4905291;29;20470;-90
2022/08/18 10:37:34;;;;;;;13.88;8.00;;;20.30;99.90;;;;;;4905899;29;20131;-89
2022/08/18 10:40:15;;;;;;;14.13;8.63;;;20.30;99.90;;;;;;4922420;29;20160;-91
2022/08/18 10:42:50;;;;;;;13.63;7.18;;;20.40;99.90;;;;;;4905687;29;20220;-92
2022/08/18 10:45:35;;;;;;;11.85;6.70;;;20.60;99.90;;;;;;4902046;29;20108;-91
2022/08/18 10:48:15;;;;;;;15.25;7.22;;;20.60;99.90;;;;;;4888150;29;20055;-90
2022/08/18 10:50:46;;;;;;;;;;;20.70;99.90;;;;;;4895383;29;20029;-91
2022/08/18 10:53:36;;;;;;;9.68;6.10;;;20.90;99.90;;;;;;4909635;29;19946;-92
2022/08/18 10:56:39;;;;;;;9.93;6.10;;;21.10;99.90;;;;;;4896355;29;20348;-91
2022/08/18 10:59:11;;;;;;;9.00;5.80;;;21.10;99.90;;;;;;4915506;29;20040;-89
2022/08/18 11:01:52;;;;;;;10.73;6.55;;;21.00;99.90;;;;;;4914355;29;20033;-90
2022/08/18 11:04:35;;;;;;;11.18;6.40;;;20.90;99.60;;;;;;4913576;29;20044;-92
2022/08/18 11:07:10;;;;;;;11.32;5.88;;;20.80;99.50;;;;;;4924505;29;20028;-91
2022/08/18 11:09:39;;;;;;;13.07;6.82;;;20.70;99.90;;;;;;4915584;29;20079;-91
2022/08/18 11:12:06;;;;;;;10.18;5.85;;;20.80;99.90;;;;;;4914705;29;20064;-90
2022/08/18 11:15:05;;;;;;;10.35;5.20;;;20.80;99.60;;;;;;4905003;29;20040;-89
2022/08/18 11:17:57;;;;;;;9.40;5.10;;;20.80;99.20;;;;;;4927001;29;20485;-91
2022/08/18 11:20:30;;;;;;;7.63;4.80;;;20.80;99.20;;;;;;4923551;29;20079;-91
2022/08/18 11:22:59;;;;;;;6.93;4.60;;;20.90;98.90;;;;;;4923536;29;20027;-90
2022/08/18 11:25:34;;;;;;;8.45;5.30;;;20.90;97.90;;;;;;4923155;29;20027;-90
2022/08/18 11:28:01;;;;;;;9.27;5.03;;;20.90;97.40;;;;;;4923232;29;20028;-91
2022/08/18 11:30:33;;;;;;;8.20;4.38;;;20.90;97.40;;;;;;4923394;29;20031;-90
2022/08/18 11:32:59;;;;;;;9.52;4.93;;;21.00;97.00;;;;;;4923878;29;20042;-91
2022/08/18 11:35:43;;;;;;;7.32;5.30;;;21.00;96.90;;;;;;4923549;29;20051;-91
2022/08/18 11:38:13;;;;;;;9.27;5.03;;;21.00;96.50;;;;;;4923306;29;20032;-91
2022/08/18 11:40:46;;;;;;;6.43;4.40;;;21.00;96.40;;;;;;4923479;29;20486;-91
2022/08/18 11:43:16;;;;;;;8.23;5.00;;;21.00;96.40;;;;;;4923518;29;20482;-91
2022/08/18 11:45:54;;;;;;;8.85;4.88;;;21.10;96.50;;;;;;4923755;29;20035;-91
2022/08/18 11:48:25;;;;;;;7.50;4.30;;;21.20;96.40;;;;;;4909494;29;20108;-91
2022/08/18 11:51:02;;;;;;;8.93;4.85;;;21.20;96.10;;;;;;4904623;29;20091;-91
2022/08/18 11:53:31;;;;;;;9.20;4.72;;;21.30;95.70;;;;;;4904451;29;20031;-90
2022/08/18 11:56:05;;;;;;;8.25;4.63;;;21.30;95.80;;;;;;4904397;29;20084;-91
2022/08/18 11:58:45;;;;;;;5.65;3.97;;;21.30;95.70;;;;;;4905662;29;20039;-91
2022/08/18 12:01:31;;;;;;;7.43;4.15;;;21.30;95.70;;;;;;4920658;29;20052;-91
2022/08/18 12:04:23;;;;;;;6.82;3.97;;;21.20;95.60;;;;;;4900443;29;20100;-90
2022/08/18 12:06:52;;;;;;;10.05;5.10;;;21.10;95.40;;;;;;4904804;29;20056;-92
2022/08/18 12:09:23;;;;;;;6.72;4.70;;;21.00;95.20;;;;;;4903619;29;20039;-91
2022/08/18 12:11:56;;;;;;;4.72;4.15;;;21.00;95.50;;;;;;4904732;29;20024;-92
2022/08/18 12:14:25;;;;;;;6.22;4.35;;;21.10;95.80;;;;;;4904122;29;20148;-92
2022/08/18 12:16:53;;;;;;;7.78;4.80;;;21.00;95.60;;;;;;4903709;29;20149;-92
2022/08/18 12:19:19;;;;;;;7.95;5.35;;;20.90;95.20;;;;;;4905935;29;20024;-91
2022/08/18 12:21:54;;;;;;;10.50;5.63;;;20.80;95.20;;;;;;4909068;29;20474;-92
2022/08/18 12:24:26;;;;;;;7.03;4.82;;;20.70;95.60;;;;;;4906585;29;20024;-92
2022/08/18 12:26:53;;;;;;;10.27;5.03;;;20.60;95.80;;;;;;4917896;29;20028;-92
2022/08/18 12:29:20;;;;;;;9.55;5.25;;;20.50;96.20;;;;;;4888781;29;20028;-92
2022/08/18 12:31:51;;;;;;;8.30;5.40;;;20.40;96.60;;;;;;4919043;29;20506;-91
2022/08/18 12:34:19;;;;;;;9.05;6.00;;;20.30;96.90;;;;;;4885066;29;20029;-90
2022/08/18 12:36:46;;;;;;;11.07;5.82;;;20.20;97.40;;;;;;4889859;29;20044;-91
2022/08/18 12:39:13;;;;;;;10.50;5.82;;;20.10;97.80;;;;;;4906189;29;20020;-92
2022/08/18 12:41:39;;;;;;;8.85;5.47;;;20.10;98.30;;;;;;4907565;29;20040;-89
2022/08/18 12:44:05;;;;;;;8.95;5.50;;;20.10;98.60;;;;;;4900864;29;20508;-92
2022/08/18 12:46:31;;;;;;;9.75;6.15;;;20.10;98.90;;;;;;4902290;29;20493;-92
2022/08/18 12:48:57;;;;;;;10.85;6.22;;;20.10;99.20;;;;;;4900835;29;20032;-90
2022/08/18 12:51:23;;;;;;;13.85;6.05;;;20.20;99.50;;;;;;4900623;29;20037;-91
2022/08/18 12:53:51;;;;;;;11.23;6.20;;;20.20;99.70;;;;;;4907910;29;20534;-92
2022/08/18 12:56:22;;;;;;;11.25;5.88;;;20.20;99.90;;;;;;4898994;29;20046;-91
2022/08/18 12:58:48;;;;;;;9.07;6.45;;;20.30;99.80;;;;;;4903907;29;20039;-90
2022/08/18 13:01:16;;;;;;;6.72;5.85;;;20.30;99.80;;;;;;4916942;29;20028;-91
2022/08/18 13:03:44;;;;;;;10.13;5.63;;;20.40;99.80;;;;;;4904078;29;20025;-92
2022/08/18 13:06:10;;;;;;;8.23;6.28;;;20.30;99.80;;;;;;4913837;29;20028;-91
2022/08/18 13:08:36;;;;;;;9.68;5.85;;;20.30;99.70;;;;;;4910357;29;20489;-92
2022/08/18 13:11:04;;;;;;;13.00;6.60;;;20.20;99.80;;;;;;4905136;29;20024;-91
2022/08/18 13:13:30;;;;;;;8.60;5.40;;;20.30;99.90;;;;;;4908806;29;20024;-91
2022/08/18 13:15:56;;;;;;;14.23;6.65;;;20.30;99.90;;;;;;4902441;29;20386;-90
2022/08/18 13:18:21;;;;;;;11.40;6.53;;;20.40;99.90;;;;;;4924884;29;20036;-90
2022/08/18 13:20:47;;;;;;;13.13;8.20;;;20.40;99.90;;;;;;4900363;29;20032;-93
2022/08/18 13:23:13;;;;;;;11.93;8.02;;;20.40;99.90;;;;;;4905742;29;20036;-92
2022/08/18 13:25:40;;;;;;;12.65;7.15;;;20.40;99.90;;;;;;4913855;29;20040;-91
2022/08/18 13:28:08;;;;;;;9.57;6.15;;;20.40;99.90;;;;;;4914127;29;20111;-92
2022/08/18 13:30:37;;;;;;;8.80;5.47;;;20.30;99.90;;;;;;4894484;29;20025;-92
2022/08/18 13:33:03;;;;;;;8.65;5.90;;;20.30;99.90;;;;;;4907802;29;20020;-90
2022/08/18 13:35:29;;;;;;;8.43;5.68;;;20.40;99.90;;;;;;4922990;29;20048;-91
2022/08/18 13:37:55;;;;;;;11.10;5.95;;;20.50;99.90;;;;;;4898416;29;20024;-91
2022/08/18 13:40:21;;;;;;;11.02;5.78;;;20.60;99.90;;;;;;4909309;29;20024;-92
2022/08/18 13:42:48;;;;;;;12.20;7.28;;;20.80;99.90;;;;;;4923003;29;20056;-92
2022/08/18 13:45:20;;;;;;;10.48;7.20;;;20.90;99.90;;;;;;4889063;29;20024;-92
2022/08/18 13:47:47;;;;;;;12.73;6.63;;;21.00;99.90;;;;;;4911433;29;20068;-92